Time,TemperatureF,DewpointF,PressureIn,WindDirection,WindDirectionDegrees,WindSpeedMPH,WindSpeedGustMPH,Humidity,HourlyPrecipIn,Conditions,Clouds,dailyrainin,SolarRadiationWatts/m^2,SoftwareType,DateUTC
2013-10-09 00:01:00,49.0,41.0,-100.00,NE,42,1.0,2.0,74,0.00,,,0.00,0.000000,,2013-10-09 04:01:00,
2013-10-09 00:24:00,49.0,41.0,-100.00,NE,42,1.0,2.0,74,0.00,,,0.00,0.000000,,2013-10-09 04:24:00,
2013-10-09 00:34:00,49.0,41.0,-100.00,NE,42,1.0,2.0,74,0.00,,,0.00,0.000000,,2013-10-09 04:34:00,
2013-10-09 00:44:00,49.0,41.0,-100.00,NE,42,1.0,2.0,74,0.00,,,0.00,0.000000,,2013-10-09 04:44:00,
2013-10-09 00:54:00,49.0,41.0,-100.00,NE,42,1.0,2.0,74,0.00,,,0.00,0.000000,,2013-10-09 04:54:00,
2013-10-09 01:01:00,49.0,42.0,-100.00,NNE,33,2.0,3.0,77,0.00,,,0.00,0.000000,,2013-10-09 05:01:00,
2013-10-09 01:22:00,49.0,42.0,-100.00,NNE,33,2.0,3.0,77,0.00,,,0.00,0.000000,,2013-10-09 05:22:00,
2013-10-09 01:34:00,49.0,42.0,-100.00,NNE,33,2.0,3.0,77,0.00,,,0.00,0.000000,,2013-10-09 05:34:00,
2013-10-09 01:42:00,49.0,42.0,-100.00,NNE,33,2.0,3.0,77,0.00,,,0.00,0.000000,,2013-10-09 05:42:00,
2013-10-09 01:52:00,49.0,42.0,-100.00,NNE,33,2.0,3.0,77,0.00,,,0.00,0.000000,,2013-10-09 05:52:00,
2013-10-09 02:01:00,48.0,41.0,-100.00,NE,36,2.0,3.0,76,0.00,,,-99.99,0.000000,,2013-10-09 06:01:00,
2013-10-09 02:22:00,48.0,41.0,-100.00,NE,36,2.0,3.0,76,0.00,,,-99.99,0.000000,,2013-10-09 06:22:00,
2013-10-09 02:33:00,48.0,41.0,-100.00,NE,36,2.0,3.0,76,0.00,,,-99.99,0.000000,,2013-10-09 06:33:00,
2013-10-09 02:42:00,48.0,41.0,-100.00,NE,36,2.0,3.0,76,0.00,,,-99.99,0.000000,,2013-10-09 06:42:00,
2013-10-09 02:52:00,48.0,41.0,-100.00,NE,36,2.0,3.0,76,0.00,,,-99.99,0.000000,,2013-10-09 06:52:00,
2013-10-09 03:01:00,47.0,42.0,-100.00,NE,40,1.0,2.0,82,0.00,,,0.00,0.000000,,2013-10-09 07:01:00,
2013-10-09 03:22:00,47.0,42.0,-100.00,NE,40,1.0,2.0,82,0.00,,,0.00,0.000000,,2013-10-09 07:22:00,
2013-10-09 03:32:00,47.0,42.0,-100.00,NE,40,1.0,2.0,82,0.00,,,0.00,0.000000,,2013-10-09 07:32:00,
2013-10-09 03:42:00,47.0,42.0,-100.00,NE,40,1.0,2.0,82,0.00,,,0.00,0.000000,,2013-10-09 07:42:00,
2013-10-09 03:52:00,47.0,42.0,-100.00,NE,40,1.0,2.0,82,0.00,,,0.00,0.000000,,2013-10-09 07:52:00,
2013-10-09 04:01:00,46.0,41.0,-100.00,NE,40,2.0,3.0,81,0.00,,,0.00,0.000000,,2013-10-09 08:01:00,
2013-10-09 04:23:00,46.0,41.0,-100.00,NE,40,2.0,3.0,81,0.00,,,0.00,0.000000,,2013-10-09 08:23:00,
2013-10-09 04:32:00,46.0,41.0,-100.00,NE,40,2.0,3.0,81,0.00,,,0.00,0.000000,,2013-10-09 08:32:00,
2013-10-09 04:42:00,46.0,41.0,-100.00,NE,40,2.0,3.0,81,0.00,,,0.00,0.000000,,2013-10-09 08:42:00,
2013-10-09 04:53:00,46.0,41.0,-100.00,NE,40,2.0,3.0,81,0.00,,,0.00,0.000000,,2013-10-09 08:53:00,
2013-10-09 05:01:00,47.0,41.0,-100.00,NE,38,3.0,4.0,80,0.00,,,0.00,0.000000,,2013-10-09 09:01:00,
2013-10-09 05:22:00,47.0,41.0,-100.00,NE,38,3.0,4.0,80,0.00,,,0.00,0.000000,,2013-10-09 09:22:00,
2013-10-09 05:33:00,47.0,41.0,-100.00,NE,38,3.0,4.0,80,0.00,,,0.00,0.000000,,2013-10-09 09:33:00,
2013-10-09 05:43:00,47.0,41.0,-100.00,NE,38,3.0,4.0,80,0.00,,,0.00,0.000000,,2013-10-09 09:43:00,
2013-10-09 05:53:00,47.0,41.0,-100.00,NE,38,3.0,4.0,80,0.00,,,0.00,0.000000,,2013-10-09 09:53:00,
2013-10-09 06:01:00,48.0,41.0,-100.00,NE,34,4.0,6.0,76,0.00,,,0.00,0.000000,,2013-10-09 10:01:00,
2013-10-09 06:23:00,48.0,41.0,-100.00,NE,34,4.0,6.0,76,0.00,,,0.00,0.000000,,2013-10-09 10:23:00,
2013-10-09 06:33:00,48.0,41.0,-100.00,NE,34,4.0,6.0,76,0.00,,,0.00,0.000000,,2013-10-09 10:33:00,
2013-10-09 06:43:00,48.0,41.0,-100.00,NE,34,4.0,6.0,76,0.00,,,0.00,0.000000,,2013-10-09 10:43:00,
2013-10-09 06:53:00,48.0,41.0,-100.00,NE,34,4.0,6.0,76,0.00,,,0.00,0.000000,,2013-10-09 10:53:00,
2013-10-09 07:01:00,47.0,41.0,-100.00,NE,34,4.0,6.0,80,0.00,,,0.00,0.000000,,2013-10-09 11:01:00,
2013-10-09 07:22:00,47.0,41.0,-100.00,NE,34,4.0,6.0,80,0.00,,,0.00,0.000000,,2013-10-09 11:22:00,
2013-10-09 07:33:00,47.0,41.0,-100.00,NE,34,4.0,6.0,80,0.00,,,0.00,0.000000,,2013-10-09 11:33:00,
2013-10-09 07:42:00,47.0,41.0,-100.00,NE,34,4.0,6.0,80,0.00,,,0.00,0.000000,,2013-10-09 11:42:00,
2013-10-09 07:52:00,47.0,41.0,-100.00,NE,34,4.0,6.0,80,0.00,,,0.00,0.000000,,2013-10-09 11:52:00,
2013-10-09 08:01:00,48.0,40.0,-100.00,NE,43,3.0,6.0,74,0.00,,,0.00,7.000000,,2013-10-09 12:01:00,
2013-10-09 08:42:00,48.0,40.0,-100.00,NE,43,3.0,6.0,74,0.00,,,0.00,7.000000,,2013-10-09 12:42:00,
2013-10-09 08:52:00,48.0,40.0,-100.00,NE,43,3.0,6.0,74,0.00,,,0.00,7.000000,,2013-10-09 12:52:00,
2013-10-09 09:01:00,50.0,42.0,-100.00,NNE,32,5.0,8.0,74,0.00,,,0.00,102.000000,,2013-10-09 13:01:00,
2013-10-09 09:42:00,50.0,42.0,-100.00,NNE,32,5.0,8.0,74,0.00,,,0.00,102.000000,,2013-10-09 13:42:00,
2013-10-09 09:52:00,50.0,42.0,-100.00,NNE,32,5.0,8.0,74,0.00,,,0.00,102.000000,,2013-10-09 13:52:00,
2013-10-09 10:01:00,53.0,43.0,-100.00,NE,35,3.0,7.0,68,0.00,,,0.00,187.000000,,2013-10-09 14:01:00,
2013-10-09 10:22:00,53.0,43.0,-100.00,NE,35,3.0,7.0,68,0.00,,,0.00,187.000000,,2013-10-09 14:22:00,
2013-10-09 10:32:00,53.0,43.0,-100.00,NE,35,3.0,7.0,68,0.00,,,0.00,187.000000,,2013-10-09 14:32:00,
2013-10-09 10:42:00,53.0,43.0,-100.00,NE,35,3.0,7.0,68,0.00,,,0.00,187.000000,,2013-10-09 14:42:00,
2013-10-09 10:52:00,53.0,43.0,-100.00,NE,35,3.0,7.0,68,0.00,,,0.00,187.000000,,2013-10-09 14:52:00,
2013-10-09 11:01:00,54.0,43.0,-100.00,NE,39,4.0,6.0,67,0.00,,,0.00,244.000000,,2013-10-09 15:01:00,
2013-10-09 11:22:00,54.0,43.0,-100.00,NE,39,4.0,6.0,67,0.00,,,0.00,244.000000,,2013-10-09 15:22:00,
2013-10-09 11:33:00,54.0,43.0,-100.00,NE,39,4.0,6.0,67,0.00,,,0.00,244.000000,,2013-10-09 15:33:00,
2013-10-09 11:43:00,54.0,43.0,-100.00,NE,39,4.0,6.0,67,0.00,,,0.00,244.000000,,2013-10-09 15:43:00,
2013-10-09 11:53:00,54.0,43.0,-100.00,NE,39,4.0,6.0,67,0.00,,,0.00,244.000000,,2013-10-09 15:53:00,
2013-10-09 12:01:00,60.0,46.0,-100.00,ENE,77,4.0,7.0,59,0.00,,,0.00,575.000000,,2013-10-09 16:01:00,
2013-10-09 12:42:00,60.0,46.0,-100.00,ENE,77,4.0,7.0,59,0.00,,,0.00,575.000000,,2013-10-09 16:42:00,
2013-10-09 12:53:00,60.0,46.0,-100.00,ENE,77,4.0,7.0,59,0.00,,,0.00,575.000000,,2013-10-09 16:53:00,
2013-10-09 13:01:00,60.0,40.0,-100.00,NE,34,3.0,7.0,47,0.00,,,0.00,555.000000,,2013-10-09 17:01:00,
2013-10-09 13:23:00,60.0,40.0,-100.00,NE,34,3.0,7.0,47,0.00,,,0.00,555.000000,,2013-10-09 17:23:00,
2013-10-09 13:33:00,60.0,40.0,-100.00,NE,34,3.0,7.0,47,0.00,,,0.00,555.000000,,2013-10-09 17:33:00,
2013-10-09 13:42:00,60.0,40.0,-100.00,NE,34,3.0,7.0,47,0.00,,,0.00,555.000000,,2013-10-09 17:42:00,
2013-10-09 13:52:00,60.0,40.0,-100.00,NE,34,3.0,7.0,47,0.00,,,0.00,555.000000,,2013-10-09 17:52:00,
2013-10-09 14:01:00,61.0,42.0,-100.00,NNE,16,3.0,6.0,49,0.00,,,0.00,416.000000,,2013-10-09 18:01:00,
2013-10-09 14:22:00,61.0,42.0,-100.00,NNE,16,3.0,6.0,49,0.00,,,0.00,416.000000,,2013-10-09 18:22:00,
2013-10-09 14:32:00,61.0,42.0,-100.00,NNE,16,3.0,6.0,49,0.00,,,0.00,416.000000,,2013-10-09 18:32:00,
2013-10-09 14:42:00,61.0,42.0,-100.00,NNE,16,3.0,6.0,49,0.00,,,0.00,416.000000,,2013-10-09 18:42:00,
2013-10-09 14:52:00,61.0,42.0,-100.00,NNE,16,3.0,6.0,49,0.00,,,0.00,416.000000,,2013-10-09 18:52:00,
2013-10-09 15:01:00,59.0,40.0,-100.00,NNE,32,3.0,9.0,49,0.00,,,0.00,289.000000,,2013-10-09 19:01:00,
2013-10-09 15:22:00,59.0,40.0,-100.00,NNE,32,3.0,9.0,49,0.00,,,0.00,289.000000,,2013-10-09 19:22:00,
2013-10-09 15:32:00,59.0,40.0,-100.00,NNE,32,3.0,9.0,49,0.00,,,0.00,289.000000,,2013-10-09 19:32:00,
2013-10-09 15:42:00,59.0,40.0,-100.00,NNE,32,3.0,9.0,49,0.00,,,0.00,289.000000,,2013-10-09 19:42:00,
2013-10-09 15:53:00,59.0,40.0,-100.00,NNE,32,3.0,9.0,49,0.00,,,0.00,289.000000,,2013-10-09 19:53:00,
2013-10-09 16:01:00,61.0,40.0,-100.00,NNE,32,4.0,9.0,45,0.00,,,0.00,340.000000,,2013-10-09 20:01:00,
2013-10-09 16:22:00,61.0,40.0,-100.00,NNE,32,4.0,9.0,45,0.00,,,0.00,340.000000,,2013-10-09 20:22:00,
2013-10-09 16:32:00,61.0,40.0,-100.00,NNE,32,4.0,9.0,45,0.00,,,0.00,340.000000,,2013-10-09 20:32:00,
2013-10-09 16:43:00,61.0,40.0,-100.00,NNE,32,4.0,9.0,45,0.00,,,0.00,340.000000,,2013-10-09 20:43:00,
2013-10-09 16:52:00,61.0,40.0,-100.00,NNE,32,4.0,9.0,45,0.00,,,0.00,340.000000,,2013-10-09 20:52:00,
2013-10-09 17:01:00,60.0,38.0,-100.00,NE,37,3.0,9.0,44,0.00,,,0.00,334.000000,,2013-10-09 21:01:00,
2013-10-09 17:23:00,60.0,38.0,-100.00,NE,37,3.0,9.0,44,0.00,,,0.00,334.000000,,2013-10-09 21:23:00,
2013-10-09 17:34:00,60.0,38.0,-100.00,NE,37,3.0,9.0,44,0.00,,,0.00,334.000000,,2013-10-09 21:34:00,
2013-10-09 17:44:00,60.0,38.0,-100.00,NE,37,3.0,9.0,44,0.00,,,0.00,334.000000,,2013-10-09 21:44:00,
2013-10-09 17:54:00,60.0,38.0,-100.00,NE,37,3.0,9.0,44,0.00,,,0.00,334.000000,,2013-10-09 21:54:00,
2013-10-09 18:01:00,57.0,40.0,-100.00,North,11,3.0,6.0,53,0.00,,,0.00,157.000000,,2013-10-09 22:01:00,
2013-10-09 18:43:00,57.0,40.0,-100.00,North,11,3.0,6.0,53,0.00,,,0.00,157.000000,,2013-10-09 22:43:00,
2013-10-09 18:53:00,57.0,40.0,-100.00,North,11,3.0,6.0,53,0.00,,,0.00,157.000000,,2013-10-09 22:53:00,
2013-10-09 19:01:00,53.0,37.0,-100.00,NNE,27,3.0,7.0,55,0.00,,,0.00,45.000000,,2013-10-09 23:01:00,
2013-10-09 19:43:00,53.0,37.0,-100.00,NNE,27,3.0,7.0,55,0.00,,,0.00,45.000000,,2013-10-09 23:43:00,
2013-10-09 19:53:00,53.0,37.0,-100.00,NNE,27,3.0,7.0,55,0.00,,,0.00,45.000000,,2013-10-09 23:53:00,
2013-10-09 20:01:00,51.0,42.0,-100.00,NNE,28,3.0,5.0,71,0.00,,,0.00,0.000000,,2013-10-10 00:01:00,
2013-10-09 20:22:00,51.0,42.0,-100.00,NNE,28,3.0,5.0,71,0.00,,,0.00,0.000000,,2013-10-10 00:22:00,
2013-10-09 20:32:00,51.0,42.0,-100.00,NNE,28,3.0,5.0,71,0.00,,,0.00,0.000000,,2013-10-10 00:32:00,
2013-10-09 20:42:00,51.0,42.0,-100.00,NNE,28,3.0,5.0,71,0.00,,,0.00,0.000000,,2013-10-10 00:42:00,
2013-10-09 20:52:00,51.0,42.0,-100.00,NNE,28,3.0,5.0,71,0.00,,,0.00,0.000000,,2013-10-10 00:52:00,
2013-10-09 21:01:00,51.0,43.0,-100.00,NNE,28,3.0,6.0,73,0.00,,,0.00,0.000000,,2013-10-10 01:01:00,
2013-10-09 21:42:00,51.0,43.0,-100.00,NNE,28,3.0,6.0,73,0.00,,,0.00,0.000000,,2013-10-10 01:42:00,
2013-10-09 21:52:00,51.0,43.0,-100.00,NNE,28,3.0,6.0,73,0.00,,,0.00,0.000000,,2013-10-10 01:52:00,
2013-10-09 22:01:00,48.0,42.0,-100.00,NE,43,3.0,8.0,81,0.00,,,0.00,0.000000,,2013-10-10 02:01:00,
2013-10-09 22:52:00,48.0,42.0,-100.00,NE,43,3.0,8.0,81,0.00,,,0.00,0.000000,,2013-10-10 02:52:00,
2013-10-09 23:01:00,48.0,42.0,-100.00,NE,34,4.0,7.0,81,0.00,,,0.00,0.000000,,2013-10-10 03:01:00,
2013-10-09 23:44:00,48.0,42.0,-100.00,NE,34,4.0,7.0,81,0.00,,,0.00,0.000000,,2013-10-10 03:44:00,
2013-10-09 23:55:00,48.0,42.0,-100.00,NE,34,4.0,7.0,81,0.00,,,0.00,0.000000,,2013-10-10 03:55:00,